createdAt,value
2018-02-15T00:01:07.898Z,101327.91
2018-02-15T00:03:37.015Z,101333.98
2018-02-15T00:06:06.260Z,101340.97
2018-02-15T00:08:35.632Z,101337.88
2018-02-15T00:11:05.104Z,101342.45
2018-02-15T00:13:34.783Z,101345.89
2018-02-15T00:16:04.039Z,101349.77
2018-02-15T00:18:33.018Z,101345.37
2018-02-15T00:21:02.349Z,101340.99
2018-02-15T00:23:31.686Z,101340.02
2018-02-15T00:26:01.135Z,101329.83
2018-02-15T00:28:30.188Z,101338.27
2018-02-15T00:30:59.309Z,101347.32
2018-02-15T00:33:28.820Z,101343.59
2018-02-15T00:35:58.205Z,101340.06
2018-02-15T00:38:27.436Z,101331.52
2018-02-15T00:40:56.898Z,101339.14
2018-02-15T00:43:26.182Z,101345.47
2018-02-15T00:45:55.417Z,101347.03
2018-02-15T00:48:24.705Z,101348.70
2018-02-15T00:50:54.034Z,101344.75
2018-02-15T00:53:23.537Z,101345.78
2018-02-15T00:55:52.846Z,101346.83
2018-02-15T00:58:22.155Z,101352.41
2018-02-15T01:00:51.231Z,101350.50
2018-02-15T01:03:20.269Z,101354.28
2018-02-15T01:05:49.738Z,101352.02
2018-02-15T01:08:19.102Z,101350.03
2018-02-15T01:10:48.655Z,101351.87
2018-02-15T01:13:17.945Z,101353.72
2018-02-15T01:15:47.090Z,101352.47
2018-02-15T01:18:16.365Z,101364.63
2018-02-15T01:20:45.269Z,101364.81
2018-02-15T01:23:14.505Z,101370.33
2018-02-15T01:25:43.537Z,101369.60
2018-02-15T01:28:12.526Z,101375.66
2018-02-15T01:30:42.026Z,101378.05
2018-02-15T01:33:11.165Z,101373.23
2018-02-15T01:35:40.231Z,101379.67
2018-02-15T01:38:09.724Z,101379.06
2018-02-15T01:40:38.689Z,101387.47
2018-02-15T01:43:07.554Z,101392.52
2018-02-15T01:45:36.788Z,101397.13
2018-02-15T01:48:05.866Z,101398.72
2018-02-15T01:50:35.316Z,101396.73
2018-02-15T01:53:04.801Z,101398.25
2018-02-15T01:55:34.145Z,101398.61
2018-02-15T01:58:03.919Z,101407.34
2018-02-15T02:00:33.145Z,101410.74
2018-02-15T02:03:02.554Z,101413.02
2018-02-15T02:05:31.914Z,101420.45
2018-02-15T02:08:01.535Z,101424.72
2018-02-15T02:10:31.052Z,101429.63
2018-02-15T02:13:00.282Z,101427.27
2018-02-15T02:15:29.828Z,101421.15
2018-02-15T02:17:59.041Z,101431.34
2018-02-15T02:20:28.206Z,101424.44
2018-02-15T02:22:57.532Z,101427.50
2018-02-15T02:25:27.351Z,101426.17
2018-02-15T02:27:56.860Z,101436.03
2018-02-15T02:30:26.688Z,101433.36
2018-02-15T02:32:56.149Z,101434.27
2018-02-15T02:35:25.741Z,101437.77
2018-02-15T02:37:55.241Z,101432.66
2018-02-15T02:40:24.486Z,101433.31
2018-02-15T02:42:53.762Z,101439.55
2018-02-15T02:45:23.198Z,101446.96
2018-02-15T02:47:52.334Z,101451.22
2018-02-15T02:50:21.589Z,101455.62
2018-02-15T02:52:51.294Z,101459.48
2018-02-15T02:55:20.617Z,101455.78
2018-02-15T02:57:49.988Z,101461.68
2018-02-15T03:00:19.186Z,101470.62
2018-02-15T03:02:48.546Z,101472.84
2018-02-15T03:05:18.114Z,101481.83
2018-02-15T03:07:47.563Z,101485.70
2018-02-15T03:10:17.336Z,101486.98
2018-02-15T03:12:46.870Z,101487.75
2018-02-15T03:15:15.935Z,101491.14
2018-02-15T03:17:45.334Z,101496.67
2018-02-15T03:20:14.827Z,101491.98
2018-02-15T03:22:44.234Z,101491.86
2018-02-15T03:25:13.960Z,101489.03
2018-02-15T03:27:43.552Z,101492.64
2018-02-15T03:30:13.439Z,101504.16
2018-02-15T03:32:43.182Z,101505.95
2018-02-15T03:35:12.900Z,101518.31
2018-02-15T03:37:42.253Z,101513.11
2018-02-15T03:40:11.497Z,101519.09
2018-02-15T03:42:40.773Z,101527.94
2018-02-15T03:45:10.304Z,101524.78
2018-02-15T03:47:39.435Z,101525.79
2018-02-15T03:50:09.294Z,101531.35
2018-02-15T03:52:38.809Z,101529.92
2018-02-15T03:55:07.905Z,101525.20
2018-02-15T03:57:37.344Z,101527.63
2018-02-15T04:00:06.647Z,101530.73
2018-02-15T04:02:36.365Z,101544.53
2018-02-15T04:05:05.937Z,101539.64
2018-02-15T04:07:35.301Z,101539.71
2018-02-15T04:10:04.727Z,101540.89
2018-02-15T04:12:34.245Z,101540.55
2018-02-15T04:15:03.833Z,101544.34
2018-02-15T04:17:32.929Z,101548.37
2018-02-15T04:20:02.554Z,101554.89
2018-02-15T04:22:31.740Z,101559.05
2018-02-15T04:25:00.989Z,101557.58
2018-02-15T04:27:30.464Z,101566.14
2018-02-15T04:29:59.485Z,101572.50
2018-02-15T04:32:28.438Z,101573.28
2018-02-15T04:34:57.638Z,101576.53
2018-02-15T04:37:27.249Z,101584.23
2018-02-15T04:39:56.671Z,101584.14
2018-02-15T04:42:25.728Z,101583.41
2018-02-15T04:44:54.601Z,101599.02
2018-02-15T04:47:23.731Z,101609.91
2018-02-15T04:49:52.741Z,101612.06
2018-02-15T04:52:22.140Z,101618.70
2018-02-15T04:54:51.050Z,101618.77
2018-02-15T04:57:20.093Z,101621.30
2018-02-15T04:59:48.946Z,101622.69
2018-02-15T05:02:18.026Z,101621.34
2018-02-15T05:04:47.089Z,101624.36
2018-02-15T05:07:16.600Z,101631.20
2018-02-15T05:09:45.761Z,101635.24
2018-02-15T05:12:14.998Z,101638.27
2018-02-15T05:14:44.399Z,101644.13
2018-02-15T05:17:14.010Z,101641.62
2018-02-15T05:19:43.294Z,101640.56
2018-02-15T05:22:12.868Z,101645.59
2018-02-15T05:24:42.318Z,101648.41
2018-02-15T05:27:11.406Z,101651.35
2018-02-15T05:29:40.347Z,101656.31
2018-02-15T05:32:09.357Z,101658.75
2018-02-15T05:34:38.308Z,101661.34
2018-02-15T05:37:07.585Z,101666.34
2018-02-15T05:39:36.639Z,101669.60
2018-02-15T05:42:05.822Z,101672.20
2018-02-15T05:44:35.148Z,101676.32
2018-02-15T05:47:04.623Z,101687.73
2018-02-15T05:49:33.521Z,101685.09
2018-02-15T05:52:02.613Z,101685.80
2018-02-15T05:54:31.632Z,101691.86
2018-02-15T05:57:00.682Z,101700.41
2018-02-15T05:59:29.770Z,101697.47
2018-02-15T06:01:58.938Z,101706.95
2018-02-15T06:04:28.210Z,101701.73
2018-02-15T06:06:57.262Z,101697.83
2018-02-15T06:09:26.326Z,101698.70
2018-02-15T06:11:55.473Z,101698.66
2018-02-15T06:14:24.616Z,101695.30
2018-02-15T06:16:53.700Z,101701.63
2018-02-15T06:19:22.972Z,101705.27
2018-02-15T06:21:52.406Z,101707.18
2018-02-15T06:24:21.651Z,101704.11
2018-02-15T06:26:50.513Z,101710.26
2018-02-15T06:29:19.696Z,101705.73
2018-02-15T06:31:48.529Z,101706.73
2018-02-15T06:34:17.653Z,101704.30
2018-02-15T06:36:46.766Z,101703.71
2018-02-15T06:39:16.144Z,101706.65
2018-02-15T06:41:45.323Z,101706.27
2018-02-15T06:44:14.540Z,101707.52
2018-02-15T06:46:43.803Z,101701.75
2018-02-15T06:49:12.993Z,101698.73
2018-02-15T06:51:41.897Z,101704.79
2018-02-15T06:54:11.005Z,101709.64
2018-02-15T06:56:40.262Z,101717.18
2018-02-15T06:59:09.673Z,101714.38
2018-02-15T07:01:38.918Z,101719.26
2018-02-15T07:04:08.195Z,101711.83
2018-02-15T07:06:37.286Z,101712.55
2018-02-15T07:09:06.766Z,101711.95
2018-02-15T07:11:36.283Z,101710.38
2018-02-15T07:14:05.569Z,101719.39
2018-02-15T07:16:35.117Z,101718.53
2018-02-15T07:19:04.475Z,101713.83
2018-02-15T07:21:33.722Z,101708.67
2018-02-15T07:24:03.281Z,101716.55
2018-02-15T07:26:32.289Z,101721.78
2018-02-15T07:29:01.327Z,101716.67
2018-02-15T07:31:30.638Z,101716.31
2018-02-15T07:33:59.818Z,101712.33
2018-02-15T07:36:29.397Z,101709.35
2018-02-15T07:38:58.443Z,101706.98
2018-02-15T07:41:27.998Z,101703.50
2018-02-15T07:43:57.205Z,101715.28
2018-02-15T07:46:26.735Z,101712.47
2018-02-15T07:48:55.933Z,101716.77
2018-02-15T07:51:25.405Z,101715.18
2018-02-15T07:53:54.716Z,101721.59
2018-02-15T07:56:23.846Z,101720.66
2018-02-15T07:58:53.168Z,101725.50
2018-02-15T08:01:22.393Z,101729.80
2018-02-15T08:03:52.010Z,101727.58
2018-02-15T08:06:21.413Z,101735.13
2018-02-15T08:08:50.653Z,101735.42
2018-02-15T08:11:19.922Z,101735.42
2018-02-15T08:13:49.020Z,101733.69
2018-02-15T08:16:18.419Z,101747.34
2018-02-15T08:18:47.620Z,101748.59
2018-02-15T08:21:16.807Z,101750.78
2018-02-15T08:23:46.115Z,101751.23
2018-02-15T08:26:15.510Z,101754.19
2018-02-15T08:28:44.412Z,101755.66
2018-02-15T08:31:13.811Z,101753.74
2018-02-15T08:33:42.937Z,101758.98
2018-02-15T08:36:12.184Z,101756.72
2018-02-15T08:38:41.566Z,101754.69
2018-02-15T08:41:10.466Z,101769.02
2018-02-15T08:43:39.575Z,101771.47
2018-02-15T08:46:08.622Z,101768.68
2018-02-15T08:48:37.824Z,101758.50
2018-02-15T08:51:06.777Z,101766.84
2018-02-15T08:53:36.192Z,101773.06
2018-02-15T08:56:05.674Z,101774.27
2018-02-15T08:58:35.094Z,101782.28
2018-02-15T09:01:04.771Z,101786.98
2018-02-15T09:03:34.723Z,101789.94
2018-02-15T09:06:04.132Z,101785.25
2018-02-15T09:08:33.524Z,101790.20
2018-02-15T09:11:03.139Z,101782.28
2018-02-15T09:13:32.105Z,101786.02
2018-02-15T09:16:01.530Z,101784.85
2018-02-15T09:18:30.892Z,101779.16
2018-02-15T09:21:00.433Z,101773.55
2018-02-15T09:23:29.748Z,101775.09
2018-02-15T09:25:58.756Z,101765.80
2018-02-15T09:28:28.238Z,101764.81
2018-02-15T09:30:57.446Z,101777.90
2018-02-15T09:33:26.825Z,101774.41
2018-02-15T09:35:56.124Z,101769.64
2018-02-15T09:38:25.525Z,101769.56
2018-02-15T09:40:54.534Z,101777.35
2018-02-15T09:43:23.739Z,101780.41
2018-02-15T09:45:53.446Z,101780.50
2018-02-15T09:48:22.956Z,101791.44
2018-02-15T09:50:52.350Z,101801.47
2018-02-15T09:53:21.551Z,101792.66
2018-02-15T09:55:50.741Z,101800.75
2018-02-15T09:58:19.644Z,101789.20
2018-02-15T10:00:48.533Z,101780.14
2018-02-15T10:03:18.136Z,101783.98
2018-02-15T10:05:47.540Z,101783.48
2018-02-15T10:08:16.745Z,101782.27
2018-02-15T10:10:45.942Z,101788.95
2018-02-15T10:13:15.550Z,101794.45
2018-02-15T10:15:44.825Z,101791.92
2018-02-15T10:18:14.041Z,101789.02
2018-02-15T10:20:43.318Z,101793.11
2018-02-15T10:23:13.475Z,101789.63
2018-02-15T10:25:42.969Z,101783.99
2018-02-15T10:28:12.166Z,101780.84
2018-02-15T10:30:41.144Z,101777.28
2018-02-15T10:33:10.476Z,101781.77
2018-02-15T10:35:39.659Z,101777.09
2018-02-15T10:38:08.765Z,101776.30
2018-02-15T10:40:38.166Z,101770.27
2018-02-15T10:43:07.320Z,101770.62
2018-02-15T10:45:36.283Z,101775.03
2018-02-15T10:48:05.855Z,101775.41
2018-02-15T10:50:35.029Z,101768.70
2018-02-15T10:53:04.402Z,101773.52
2018-02-15T10:55:33.593Z,101771.93
2018-02-15T10:58:02.866Z,101766.36
2018-02-15T11:00:37.902Z,101761.84
2018-02-15T11:03:13.231Z,101751.98
2018-02-15T11:05:42.477Z,101740.45
2018-02-15T11:08:11.996Z,101748.08
2018-02-15T11:10:41.451Z,101750.11
2018-02-15T11:13:10.847Z,101749.33
2018-02-15T11:15:39.973Z,101745.86
2018-02-15T11:18:09.456Z,101740.12
2018-02-15T11:20:38.678Z,101749.42
2018-02-15T11:23:07.873Z,101742.41
2018-02-15T11:25:37.111Z,101745.67
2018-02-15T11:28:06.351Z,101741.94
2018-02-15T11:30:35.747Z,101745.37
2018-02-15T11:33:05.160Z,101754.42
2018-02-15T11:35:34.266Z,101754.56
2018-02-15T11:38:03.338Z,101752.17
2018-02-15T11:40:32.388Z,101740.09
2018-02-15T11:43:01.456Z,101736.93
2018-02-15T11:45:30.602Z,101743.20
2018-02-15T11:48:00.035Z,101750.61
2018-02-15T11:50:29.535Z,101751.01
2018-02-15T11:52:59.157Z,101742.04
2018-02-15T11:55:28.650Z,101746.30
2018-02-15T11:57:58.361Z,101745.75
2018-02-15T12:00:27.865Z,101729.52
2018-02-15T12:02:57.199Z,101733.78
2018-02-15T12:05:26.250Z,101729.16
2018-02-15T12:07:55.739Z,101736.87
2018-02-15T12:10:24.857Z,101734.36
2018-02-15T12:12:54.266Z,101738.67
2018-02-15T12:15:23.887Z,101743.19
2018-02-15T12:17:52.950Z,101743.41
2018-02-15T12:20:22.478Z,101740.90
2018-02-15T12:22:51.779Z,101726.84
2018-02-15T12:25:20.910Z,101730.56
2018-02-15T12:27:50.050Z,101734.02
2018-02-15T12:30:19.453Z,101736.16
2018-02-15T12:32:48.413Z,101734.21
2018-02-15T12:35:17.248Z,101739.63
2018-02-15T12:37:46.659Z,101750.08
2018-02-15T12:40:15.685Z,101742.52
2018-02-15T12:42:44.866Z,101736.95
2018-02-15T12:45:14.094Z,101742.57
2018-02-15T12:47:43.039Z,101741.58
2018-02-15T12:50:12.712Z,101747.84
2018-02-15T12:52:42.136Z,101747.10
2018-02-15T12:55:11.277Z,101753.77
2018-02-15T12:57:40.433Z,101754.61
2018-02-15T13:00:09.489Z,101748.37
2018-02-15T13:02:38.575Z,101751.70
2018-02-15T13:05:08.253Z,101749.57
2018-02-15T13:07:37.411Z,101748.91
2018-02-15T13:10:06.752Z,101753.66
2018-02-15T13:12:47.109Z,101753.13
2018-02-15T13:15:27.334Z,101759.27
2018-02-15T13:17:56.297Z,101759.37
2018-02-15T13:20:25.701Z,101769.34
2018-02-15T13:22:55.067Z,101774.12
2018-02-15T13:25:24.128Z,101773.41
2018-02-15T13:28:04.134Z,101771.44
2018-02-15T13:30:33.412Z,101774.55
2018-02-15T13:33:03.889Z,101777.91
2018-02-15T13:35:33.468Z,101766.70
2018-02-15T13:38:02.812Z,101768.48
2018-02-15T13:40:32.095Z,101766.28
2018-02-15T13:43:01.181Z,101770.04
2018-02-15T13:45:30.316Z,101772.71
2018-02-15T13:47:59.551Z,101780.58
2018-02-15T13:50:28.629Z,101782.87
2018-02-15T13:52:57.829Z,101778.26
2018-02-15T13:55:27.290Z,101796.73
2018-02-15T13:57:56.652Z,101793.14
2018-02-15T14:00:26.048Z,101793.48
2018-02-15T14:02:55.346Z,101795.58
2018-02-15T14:05:24.319Z,101796.22
2018-02-15T14:07:53.365Z,101808.03
2018-02-15T14:10:22.461Z,101815.94
2018-02-15T14:12:51.740Z,101822.06
2018-02-15T14:15:20.648Z,101824.77
2018-02-15T14:17:49.800Z,101823.89
2018-02-15T14:20:18.928Z,101825.88
2018-02-15T14:22:48.319Z,101829.45
2018-02-15T14:25:17.723Z,101831.80
2018-02-15T14:27:46.853Z,101827.94
2018-02-15T14:30:16.132Z,101830.45
2018-02-15T14:32:45.422Z,101832.39
2018-02-15T14:35:14.824Z,101838.98
2018-02-15T14:37:44.305Z,101836.77
2018-02-15T14:40:13.393Z,101846.11
2018-02-15T14:42:42.939Z,101844.91
2018-02-15T14:45:12.670Z,101854.98
2018-02-15T14:47:41.638Z,101855.77
2018-02-15T14:50:10.912Z,101853.05
2018-02-15T14:52:40.348Z,101857.80
2018-02-15T14:55:09.843Z,101853.39
2018-02-15T14:57:39.135Z,101859.27
2018-02-15T15:00:08.356Z,101859.09
2018-02-15T15:02:37.513Z,101866.68
2018-02-15T15:05:06.735Z,101870.41
2018-02-15T15:07:35.872Z,101874.31
2018-02-15T15:10:05.118Z,101869.55
2018-02-15T15:12:34.699Z,101873.59
2018-02-15T15:15:04.426Z,101871.27
2018-02-15T15:17:33.856Z,101869.14
2018-02-15T15:20:02.909Z,101872.83
2018-02-15T15:22:32.116Z,101872.32
2018-02-15T15:25:01.555Z,101878.88
2018-02-15T15:27:30.966Z,101878.02
2018-02-15T15:30:00.030Z,101882.66
2018-02-15T15:32:29.455Z,101884.25
2018-02-15T15:34:58.931Z,101888.13
2018-02-15T15:37:28.364Z,101890.22
2018-02-15T15:39:57.671Z,101891.03
2018-02-15T15:42:27.070Z,101905.02
2018-02-15T15:44:56.461Z,101912.38
2018-02-15T15:47:25.572Z,101912.66
2018-02-15T15:49:55.148Z,101918.22
2018-02-15T15:52:24.346Z,101927.41
2018-02-15T15:54:53.878Z,101933.82
2018-02-15T15:57:22.966Z,101937.53
2018-02-15T15:59:52.378Z,101939.45
2018-02-15T16:02:22.201Z,101942.73
2018-02-15T16:04:51.806Z,101951.03
2018-02-15T16:07:21.316Z,101957.17
2018-02-15T16:09:50.716Z,101967.77
2018-02-15T16:12:19.950Z,101976.98
2018-02-15T16:14:49.364Z,101987.34
2018-02-15T16:19:48.728Z,102005.74
2018-02-15T16:22:18.454Z,102007.06
2018-02-15T16:24:47.663Z,102010.03
2018-02-15T16:27:16.630Z,102012.24
2018-02-15T16:29:45.732Z,102014.75
2018-02-15T16:32:14.867Z,102016.52
2018-02-15T16:34:44.014Z,102025.90
2018-02-15T16:37:13.222Z,102029.51
2018-02-15T16:39:43.906Z,102019.72
2018-02-15T16:42:13.009Z,102013.23
2018-02-15T16:44:42.410Z,102013.78
2018-02-15T16:47:11.306Z,102024.83
2018-02-15T16:49:40.747Z,102020.52
2018-02-15T16:52:10.075Z,102027.09
2018-02-15T16:54:39.410Z,102026.91
2018-02-15T16:57:08.298Z,102024.16
2018-02-15T16:59:37.596Z,102022.27
2018-02-15T17:02:06.959Z,102026.25
2018-02-15T17:04:36.224Z,102033.04
2018-02-15T17:07:05.317Z,102044.12
2018-02-15T17:09:34.364Z,102046.98
2018-02-15T17:12:03.478Z,102046.61
2018-02-15T17:14:32.700Z,102047.27
2018-02-15T17:17:01.675Z,102055.70
2018-02-15T17:19:31.002Z,102049.61
2018-02-15T17:22:00.354Z,102051.06
2018-02-15T17:24:29.825Z,102060.38
2018-02-15T17:26:59.298Z,102063.38
2018-02-15T17:29:28.380Z,102056.27
2018-02-15T17:31:57.633Z,102060.73
2018-02-15T17:34:26.888Z,102064.23
2018-02-15T17:36:55.947Z,102063.83
2018-02-15T17:39:25.208Z,102079.39
2018-02-15T17:41:54.294Z,102074.19
2018-02-15T17:44:23.927Z,102073.02
2018-02-15T17:46:53.157Z,102086.81
2018-02-15T17:49:22.178Z,102074.50
2018-02-15T17:51:51.426Z,102090.23
2018-02-15T17:54:20.607Z,102083.02
2018-02-15T17:56:49.716Z,102083.77
2018-02-15T17:59:18.836Z,102077.78
2018-02-15T18:01:48.131Z,102088.48
2018-02-15T18:04:17.660Z,102089.56
2018-02-15T18:06:46.815Z,102084.77
2018-02-15T18:09:15.679Z,102082.80
2018-02-15T18:11:45.484Z,102094.28
2018-02-15T18:14:14.722Z,102094.86
2018-02-15T18:16:44.127Z,102096.17
2018-02-15T18:19:13.321Z,102102.39
2018-02-15T18:21:42.732Z,102097.11
2018-02-15T18:24:11.748Z,102103.86
2018-02-15T18:26:40.852Z,102101.91
2018-02-15T18:29:10.183Z,102106.22
2018-02-15T18:31:39.346Z,102116.56
2018-02-15T18:34:08.562Z,102114.33
2018-02-15T18:36:37.783Z,102118.00
2018-02-15T18:39:07.215Z,102119.06
2018-02-15T18:41:36.250Z,102121.48
2018-02-15T18:44:05.265Z,102122.54
2018-02-15T18:46:34.326Z,102129.40
2018-02-15T18:49:03.668Z,102131.53
2018-02-15T18:51:32.657Z,102132.04
2018-02-15T18:54:01.880Z,102133.78
2018-02-15T18:56:31.164Z,102137.84
2018-02-15T18:59:00.220Z,102138.22
2018-02-15T19:01:29.416Z,102135.57
2018-02-15T19:03:58.477Z,102142.63
2018-02-15T19:06:27.773Z,102140.36
2018-02-15T19:08:56.902Z,102147.63
2018-02-15T19:11:25.948Z,102151.31
2018-02-15T19:13:55.107Z,102155.42
2018-02-15T19:16:24.167Z,102154.75
2018-02-15T19:18:53.096Z,102152.70
2018-02-15T19:21:22.283Z,102156.45
2018-02-15T19:23:51.336Z,102157.55
2018-02-15T19:26:20.552Z,102157.86
2018-02-15T19:28:49.848Z,102164.25
2018-02-15T19:31:18.749Z,102162.59
2018-02-15T19:33:47.994Z,102164.81
2018-02-15T19:36:17.529Z,102156.45
2018-02-15T19:38:46.572Z,102147.41
2018-02-15T19:41:15.759Z,102155.72
2018-02-15T19:43:44.942Z,102159.67
2018-02-15T19:46:14.035Z,102166.22
2018-02-15T19:48:43.256Z,102162.38
2018-02-15T19:51:12.656Z,102154.50
2018-02-15T19:53:42.246Z,102148.46
2018-02-15T19:56:11.670Z,102148.88
2018-02-15T19:58:41.025Z,102147.56
2018-02-15T20:01:10.351Z,102149.83
2018-02-15T20:03:39.567Z,102148.70
2018-02-15T20:06:08.558Z,102158.62
2018-02-15T20:08:38.339Z,102165.66
2018-02-15T20:11:07.743Z,102163.34
2018-02-15T20:13:37.254Z,102169.22
2018-02-15T20:16:07.474Z,102172.66
2018-02-15T20:18:36.390Z,102173.65
2018-02-15T20:21:05.559Z,102176.97
2018-02-15T20:23:34.856Z,102187.32
2018-02-15T20:26:09.896Z,102194.11
2018-02-15T20:28:39.502Z,102198.88
2018-02-15T20:31:08.570Z,102199.55
2018-02-15T20:33:37.442Z,102201.86
2018-02-15T20:36:06.513Z,102208.00
2018-02-15T20:38:41.110Z,102219.34
2018-02-15T20:41:10.241Z,102220.69
2018-02-15T20:43:39.504Z,102216.72
2018-02-15T20:46:08.374Z,102222.83
2018-02-15T20:48:37.369Z,102216.53
2018-02-15T20:51:11.965Z,102227.02
2018-02-15T20:53:46.576Z,102227.26
2018-02-15T20:56:15.546Z,102237.11
2018-02-15T20:58:44.505Z,102236.59
2018-02-15T21:01:13.905Z,102238.41
2018-02-15T21:03:43.131Z,102233.73
2018-02-15T21:06:12.353Z,102235.99
2018-02-15T21:08:41.630Z,102231.96
2018-02-15T21:11:11.161Z,102225.75
2018-02-15T21:13:40.435Z,102221.22
2018-02-15T21:16:09.757Z,102230.32
2018-02-15T21:18:38.983Z,102224.43
2018-02-15T21:21:08.019Z,102227.02
2018-02-15T21:23:37.050Z,102228.76
2018-02-15T21:26:06.058Z,102224.95
2018-02-15T21:28:35.070Z,102228.72
2018-02-15T21:31:04.216Z,102228.52
2018-02-15T21:33:34.063Z,102240.11
2018-02-15T21:36:03.328Z,102236.72
2018-02-15T21:38:32.827Z,102244.67
2018-02-15T21:41:02.027Z,102239.07
2018-02-15T21:43:31.075Z,102238.88
2018-02-15T21:46:00.549Z,102246.63
2018-02-15T21:48:30.024Z,102238.38
2018-02-15T21:50:59.149Z,102227.11
2018-02-15T21:53:28.334Z,102232.95
2018-02-15T21:55:57.253Z,102234.72
2018-02-15T21:58:26.726Z,102241.02
2018-02-15T22:00:55.921Z,102231.65
2018-02-15T22:03:25.318Z,102235.88
2018-02-15T22:05:54.712Z,102243.31
2018-02-15T22:08:24.223Z,102246.86
2018-02-15T22:10:53.495Z,102248.40
2018-02-15T22:13:22.445Z,102247.11
2018-02-15T22:15:51.822Z,102249.72
2018-02-15T22:18:20.950Z,102249.44
2018-02-15T22:20:50.198Z,102265.89
2018-02-15T22:23:19.338Z,102266.84
2018-02-15T22:25:48.306Z,102258.97
2018-02-15T22:28:17.561Z,102257.68
2018-02-15T22:30:46.699Z,102263.78
2018-02-15T22:33:15.825Z,102257.75
2018-02-15T22:35:44.921Z,102255.66
2018-02-15T22:38:14.072Z,102256.56
2018-02-15T22:40:43.065Z,102246.70
2018-02-15T22:43:12.072Z,102248.36
2018-02-15T22:45:41.186Z,102249.14
2018-02-15T22:48:10.318Z,102246.11
2018-02-15T22:50:39.881Z,102241.56
2018-02-15T22:53:09.416Z,102248.81
2018-02-15T22:55:38.550Z,102249.66
2018-02-15T22:58:07.546Z,102241.28
2018-02-15T23:00:36.576Z,102244.66
2018-02-15T23:03:05.578Z,102241.59
2018-02-15T23:05:34.545Z,102242.72
2018-02-15T23:08:03.739Z,102249.90
2018-02-15T23:10:32.637Z,102250.19
2018-02-15T23:13:01.403Z,102252.13
2018-02-15T23:15:30.849Z,102246.38
2018-02-15T23:17:59.714Z,102244.00
2018-02-15T23:20:28.718Z,102238.16
2018-02-15T23:22:57.859Z,102237.46
2018-02-15T23:25:26.850Z,102235.60
2018-02-15T23:27:55.977Z,102243.06
2018-02-15T23:30:25.246Z,102251.41
2018-02-15T23:32:54.191Z,102250.87
2018-02-15T23:35:23.059Z,102252.14
2018-02-15T23:37:52.015Z,102256.47
2018-02-15T23:40:20.881Z,102255.89
2018-02-15T23:42:49.704Z,102252.29
2018-02-15T23:45:18.677Z,102259.09
2018-02-15T23:47:47.940Z,102257.56
2018-02-15T23:50:17.008Z,102259.77
2018-02-15T23:52:45.828Z,102249.52
2018-02-15T23:55:14.633Z,102254.41
2018-02-15T23:57:43.835Z,102255.16
